KQA460 HKJK-HBBA
Flight info
| Callsign | KQA460 |
|---|---|
| Flight time | 1h 27m |
| Altitude | 36000 |
| Route | PARIN4B PARIN UM306 GETAB DCT RG DCT KW DCT BJA |
| Aircraft | B738/M-SDE2E3FGHIRWXY/LB1 |
Departure
| Time | 2026-04-21 12:35 |
|---|---|
| Airport | Jomo Kenyatta International Airport (HKJK) |
Arrival
| Time | 2026-04-21 14:03 |
|---|---|
| Airport | Bujumbura Melchior Ndadaye International Airport (HBBA) |
| Time | Latitude | Longitude | Altitude | Speed | Heading |
|---|---|---|---|---|---|
| 2026-04-21 11:48 | -1.33230 | 36.92480 | 5310 ft | 0 kts | 288° |
| 2026-04-21 12:21 | -1.33231 | 36.92483 | 5310 ft | 2 kts | 288° |
| 2026-04-21 12:21 | -1.33233 | 36.92490 | 5310 ft | 2 kts | 288° |
| 2026-04-21 12:21 | -1.33235 | 36.92498 | 5310 ft | 2 kts | 288° |
| 2026-04-21 12:22 | -1.33238 | 36.92506 | 5309 ft | 2 kts | 288° |
| 2026-04-21 12:22 | -1.33240 | 36.92513 | 5309 ft | 2 kts | 288° |
| 2026-04-21 12:22 | -1.33242 | 36.92518 | 5309 ft | 1 kts | 289° |
| 2026-04-21 12:22 | -1.33244 | 36.92522 | 5309 ft | 1 kts | 264° |
| 2026-04-21 12:23 | -1.33242 | 36.92527 | 5309 ft | 1 kts | 233° |
| 2026-04-21 12:23 | -1.33239 | 36.92531 | 5309 ft | 1 kts | 211° |
| 2026-04-21 12:23 | -1.33234 | 36.92533 | 5309 ft | 1 kts | 185° |
| 2026-04-21 12:23 | -1.33232 | 36.92533 | 5309 ft | 0 kts | 173° |
| 2026-04-21 12:24 | -1.33228 | 36.92532 | 5309 ft | 0 kts | 167° |
| 2026-04-21 12:24 | -1.33224 | 36.92532 | 5309 ft | 0 kts | 171° |
| 2026-04-21 12:27 | -1.33225 | 36.92532 | 5309 ft | 0 kts | 171° |
| 2026-04-21 12:27 | -1.33228 | 36.92532 | 5309 ft | 0 kts | 171° |
| 2026-04-21 12:27 | -1.33232 | 36.92533 | 5309 ft | 1 kts | 171° |
| 2026-04-21 12:28 | -1.33244 | 36.92535 | 5309 ft | 4 kts | 171° |
| 2026-04-21 12:28 | -1.33268 | 36.92538 | 5308 ft | 7 kts | 171° |
| 2026-04-21 12:28 | -1.33301 | 36.92544 | 5307 ft | 9 kts | 171° |
| 2026-04-21 12:28 | -1.33368 | 36.92529 | 5307 ft | 8 kts | 201° |
| 2026-04-21 12:29 | -1.33409 | 36.92497 | 5306 ft | 8 kts | 236° |
| 2026-04-21 12:29 | -1.33438 | 36.92447 | 5306 ft | 8 kts | 249° |
| 2026-04-21 12:29 | -1.33448 | 36.92385 | 5307 ft | 9 kts | 260° |
| 2026-04-21 12:29 | -1.33469 | 36.92332 | 5308 ft | 8 kts | 236° |
| 2026-04-21 12:30 | -1.33502 | 36.92288 | 5309 ft | 8 kts | 233° |
| 2026-04-21 12:30 | -1.33533 | 36.92233 | 5310 ft | 9 kts | 264° |
| 2026-04-21 12:30 | -1.33502 | 36.92185 | 5311 ft | 8 kts | 322° |
| 2026-04-21 12:30 | -1.33463 | 36.92157 | 5312 ft | 7 kts | 323° |
| 2026-04-21 12:31 | -1.33420 | 36.92125 | 5313 ft | 7 kts | 324° |
| 2026-04-21 12:31 | -1.33377 | 36.92094 | 5315 ft | 8 kts | 324° |
| 2026-04-21 12:31 | -1.33323 | 36.92055 | 5317 ft | 10 kts | 324° |
| 2026-04-21 12:31 | -1.33282 | 36.92026 | 5318 ft | 12 kts | 324° |
| 2026-04-21 12:32 | -1.33243 | 36.91998 | 5319 ft | 13 kts | 324° |
| 2026-04-21 12:32 | -1.33173 | 36.91947 | 5322 ft | 15 kts | 324° |
| 2026-04-21 12:32 | -1.33092 | 36.91889 | 5323 ft | 14 kts | 325° |
| 2026-04-21 12:32 | -1.33027 | 36.91843 | 5324 ft | 12 kts | 323° |
| 2026-04-21 12:33 | -1.32965 | 36.91797 | 5325 ft | 9 kts | 324° |
| 2026-04-21 12:33 | -1.32917 | 36.91762 | 5325 ft | 7 kts | 324° |
| 2026-04-21 12:33 | -1.32889 | 36.91741 | 5326 ft | 7 kts | 324° |
| 2026-04-21 12:33 | -1.32842 | 36.91708 | 5327 ft | 9 kts | 324° |
| 2026-04-21 12:34 | -1.32804 | 36.91681 | 5327 ft | 11 kts | 325° |
| 2026-04-21 12:34 | -1.32760 | 36.91654 | 5326 ft | 4 kts | 358° |
| 2026-04-21 12:34 | -1.32736 | 36.91676 | 5325 ft | 8 kts | 56° |
| 2026-04-21 12:34 | -1.32670 | 36.91765 | 5322 ft | 42 kts | 53° |
| 2026-04-21 12:35 | -1.32357 | 36.92189 | 5318 ft | 108 kts | 54° |
| 2026-04-21 12:35 | -1.31789 | 36.92966 | 5315 ft | 164 kts | 53° |
| 2026-04-21 12:35 | -1.31033 | 36.94008 | 5443 ft | 197 kts | 54° |
| 2026-04-21 12:35 | -1.30301 | 36.95002 | 6261 ft | 187 kts | 53° |
| 2026-04-21 12:36 | -1.29792 | 36.95679 | 6552 ft | 198 kts | 52° |
| 2026-04-21 12:36 | -1.29062 | 36.96656 | 6748 ft | 224 kts | 53° |
| 2026-04-21 12:36 | -1.28364 | 36.97605 | 7063 ft | 237 kts | 53° |
| 2026-04-21 12:36 | -1.27799 | 36.98371 | 7141 ft | 252 kts | 53° |
| 2026-04-21 12:37 | -1.27002 | 36.99449 | 7303 ft | 268 kts | 53° |
| 2026-04-21 12:37 | -1.26062 | 37.00720 | 7652 ft | 279 kts | 53° |
| 2026-04-21 12:37 | -1.24917 | 37.02270 | 8330 ft | 284 kts | 53° |
| 2026-04-21 12:37 | -1.23780 | 37.03807 | 8991 ft | 288 kts | 53° |
| 2026-04-21 12:38 | -1.23002 | 37.04859 | 9443 ft | 290 kts | 53° |
| 2026-04-21 12:38 | -1.22232 | 37.05901 | 9888 ft | 293 kts | 53° |
| 2026-04-21 12:38 | -1.21026 | 37.07505 | 10540 ft | 298 kts | 50° |
| 2026-04-21 12:38 | -1.19939 | 37.08516 | 10697 ft | 313 kts | 33° |
| 2026-04-21 12:39 | -1.17818 | 37.09264 | 10782 ft | 337 kts | 4° |
| 2026-04-21 12:39 | -1.15506 | 37.08908 | 11084 ft | 353 kts | 337° |
| 2026-04-21 12:39 | -1.13604 | 37.07567 | 11602 ft | 360 kts | 311° |
| 2026-04-21 12:39 | -1.12411 | 37.05484 | 12207 ft | 366 kts | 287° |
| 2026-04-21 12:40 | -1.12179 | 37.03217 | 12818 ft | 369 kts | 264° |
| 2026-04-21 12:40 | -1.12651 | 37.01421 | 13316 ft | 372 kts | 245° |
| 2026-04-21 12:40 | -1.13958 | 36.99547 | 13930 ft | 375 kts | 224° |
| 2026-04-21 12:40 | -1.15725 | 36.98025 | 14588 ft | 378 kts | 220° |
| 2026-04-21 12:41 | -1.16913 | 36.96878 | 15004 ft | 381 kts | 228° |
| 2026-04-21 12:41 | -1.18135 | 36.95348 | 15544 ft | 384 kts | 235° |
| 2026-04-21 12:41 | -1.19526 | 36.93083 | 16240 ft | 387 kts | 242° |
| 2026-04-21 12:41 | -1.20350 | 36.91431 | 16710 ft | 390 kts | 245° |
| 2026-04-21 12:42 | -1.21781 | 36.88104 | 17600 ft | 395 kts | 248° |
| 2026-04-21 12:42 | -1.22795 | 36.85547 | 18250 ft | 398 kts | 249° |
| 2026-04-21 12:42 | -1.23462 | 36.83814 | 18677 ft | 401 kts | 249° |
| 2026-04-21 12:42 | -1.24734 | 36.80427 | 19485 ft | 405 kts | 250° |
| 2026-04-21 12:43 | -1.25721 | 36.77757 | 20097 ft | 409 kts | 250° |
| 2026-04-21 12:43 | -1.26694 | 36.75105 | 20688 ft | 412 kts | 250° |
| 2026-04-21 12:43 | -1.27689 | 36.72387 | 21273 ft | 416 kts | 250° |
| 2026-04-21 12:43 | -1.28675 | 36.69687 | 21834 ft | 419 kts | 250° |
| 2026-04-21 12:44 | -1.29668 | 36.66964 | 22382 ft | 422 kts | 250° |
| 2026-04-21 12:44 | -1.30662 | 36.64236 | 22910 ft | 425 kts | 250° |
| 2026-04-21 12:44 | -1.31683 | 36.61430 | 23436 ft | 428 kts | 250° |
| 2026-04-21 12:44 | -1.32691 | 36.58660 | 23940 ft | 431 kts | 250° |
| 2026-04-21 12:45 | -1.33699 | 36.55886 | 24431 ft | 434 kts | 250° |
| 2026-04-21 12:45 | -1.34757 | 36.52976 | 24930 ft | 437 kts | 250° |
| 2026-04-21 12:45 | -1.35401 | 36.51205 | 25226 ft | 439 kts | 250° |
| 2026-04-21 12:45 | -1.36060 | 36.49390 | 25524 ft | 441 kts | 250° |
| 2026-04-21 12:46 | -1.36863 | 36.47179 | 25878 ft | 443 kts | 250° |
| 2026-04-21 12:46 | -1.37853 | 36.44454 | 26302 ft | 446 kts | 250° |
| 2026-04-21 12:46 | -1.38908 | 36.41548 | 26741 ft | 449 kts | 250° |
| 2026-04-21 12:46 | -1.39971 | 36.38623 | 27169 ft | 451 kts | 250° |
| 2026-04-21 12:47 | -1.41038 | 36.35684 | 27586 ft | 454 kts | 250° |
| 2026-04-21 12:47 | -1.42071 | 36.32839 | 27977 ft | 456 kts | 250° |
| 2026-04-21 12:47 | -1.43131 | 36.29919 | 28359 ft | 459 kts | 250° |
| 2026-04-21 12:47 | -1.44199 | 36.26978 | 28741 ft | 462 kts | 250° |
| 2026-04-21 12:48 | -1.44933 | 36.24955 | 28994 ft | 463 kts | 250° |
| 2026-04-21 12:48 | -1.46035 | 36.21919 | 29361 ft | 466 kts | 250° |
| 2026-04-21 12:48 | -1.47139 | 36.18879 | 29708 ft | 468 kts | 250° |
| 2026-04-21 12:48 | -1.48246 | 36.15830 | 30123 ft | 468 kts | 250° |
| 2026-04-21 12:49 | -1.49357 | 36.12768 | 30723 ft | 464 kts | 250° |
| 2026-04-21 12:49 | -1.50457 | 36.09739 | 31197 ft | 463 kts | 251° |
| 2026-04-21 12:49 | -1.51555 | 36.06714 | 31700 ft | 460 kts | 251° |
| 2026-04-21 12:49 | -1.52998 | 36.02739 | 32441 ft | 454 kts | 251° |
| 2026-04-21 12:50 | -1.53713 | 36.00770 | 32856 ft | 449 kts | 252° |
| 2026-04-21 12:50 | -1.54764 | 35.97875 | 33390 ft | 445 kts | 252° |
| 2026-04-21 12:50 | -1.55833 | 35.94926 | 33656 ft | 446 kts | 252° |
| 2026-04-21 12:50 | -1.56879 | 35.92039 | 33966 ft | 446 kts | 252° |
| 2026-04-21 12:51 | -1.57924 | 35.89159 | 34218 ft | 448 kts | 251° |
| 2026-04-21 12:51 | -1.59357 | 35.85208 | 34519 ft | 450 kts | 251° |
| 2026-04-21 12:51 | -1.60071 | 35.83240 | 34671 ft | 451 kts | 251° |
| 2026-04-21 12:51 | -1.61128 | 35.80326 | 34932 ft | 451 kts | 251° |
| 2026-04-21 12:52 | -1.62467 | 35.76635 | 35286 ft | 451 kts | 251° |
| 2026-04-21 12:52 | -1.63183 | 35.74663 | 35480 ft | 450 kts | 251° |
| 2026-04-21 12:52 | -1.64254 | 35.71711 | 35780 ft | 449 kts | 251° |
| 2026-04-21 12:52 | -1.65316 | 35.68782 | 36057 ft | 448 kts | 251° |
| 2026-04-21 12:53 | -1.66382 | 35.65842 | 36187 ft | 451 kts | 251° |
| 2026-04-21 12:53 | -1.68895 | 35.58911 | 36182 ft | 450 kts | 250° |
| 2026-04-21 12:54 | -1.70674 | 35.54006 | 36182 ft | 448 kts | 250° |
| 2026-04-21 12:54 | -1.72801 | 35.48139 | 36162 ft | 448 kts | 250° |
| 2026-04-21 12:55 | -1.74931 | 35.42263 | 36122 ft | 448 kts | 250° |
| 2026-04-21 12:55 | -1.77290 | 35.35424 | 36076 ft | 448 kts | 255° |
| 2026-04-21 12:56 | -1.78443 | 35.30358 | 36042 ft | 449 kts | 257° |
| 2026-04-21 12:56 | -1.79814 | 35.24425 | 36020 ft | 448 kts | 257° |
| 2026-04-21 12:57 | -1.81249 | 35.18323 | 36020 ft | 448 kts | 257° |
| 2026-04-21 12:57 | -1.82668 | 35.12261 | 36020 ft | 449 kts | 257° |
| 2026-04-21 12:58 | -1.84099 | 35.06152 | 36020 ft | 449 kts | 257° |
| 2026-04-21 12:58 | -1.85755 | 34.99100 | 36020 ft | 449 kts | 256° |
| 2026-04-21 12:59 | -1.87182 | 34.93900 | 36020 ft | 449 kts | 253° |
| 2026-04-21 12:59 | -1.88443 | 34.89590 | 36020 ft | 449 kts | 254° |
| 2026-04-21 13:00 | -1.89256 | 34.86733 | 36020 ft | 449 kts | 254° |
| 2026-04-21 13:00 | -1.90914 | 34.80890 | 36020 ft | 449 kts | 254° |
| 2026-04-21 13:01 | -1.92890 | 34.73916 | 36020 ft | 449 kts | 254° |
| 2026-04-21 13:01 | -1.94309 | 34.68903 | 36020 ft | 449 kts | 254° |
| 2026-04-21 13:02 | -1.96003 | 34.62915 | 36020 ft | 449 kts | 254° |
| 2026-04-21 13:02 | -1.98552 | 34.53896 | 36020 ft | 449 kts | 254° |
| 2026-04-21 13:03 | -2.00249 | 34.47893 | 36020 ft | 449 kts | 254° |
| 2026-04-21 13:03 | -2.01983 | 34.41885 | 36020 ft | 449 kts | 252° |
| 2026-04-21 13:04 | -2.04047 | 34.36056 | 36020 ft | 449 kts | 250° |
| 2026-04-21 13:04 | -2.06103 | 34.30203 | 36020 ft | 449 kts | 251° |
| 2026-04-21 13:05 | -2.08134 | 34.24343 | 36020 ft | 448 kts | 253° |
| 2026-04-21 13:05 | -2.10041 | 34.17479 | 36020 ft | 439 kts | 256° |
| 2026-04-21 13:06 | -2.11366 | 34.12617 | 36020 ft | 430 kts | 256° |
| 2026-04-21 13:06 | -2.12928 | 34.06951 | 36020 ft | 420 kts | 255° |
| 2026-04-21 13:07 | -2.14729 | 34.00414 | 36020 ft | 421 kts | 255° |
| 2026-04-21 13:07 | -2.16012 | 33.95770 | 36020 ft | 423 kts | 255° |
| 2026-04-21 13:08 | -2.17831 | 33.89189 | 36020 ft | 423 kts | 255° |
| 2026-04-21 13:08 | -2.19112 | 33.84559 | 36020 ft | 422 kts | 255° |
| 2026-04-21 13:09 | -2.20684 | 33.78876 | 36020 ft | 427 kts | 256° |
| 2026-04-21 13:09 | -2.22551 | 33.72119 | 36020 ft | 440 kts | 256° |
| 2026-04-21 13:10 | -2.23925 | 33.67148 | 36020 ft | 449 kts | 255° |
| 2026-04-21 13:10 | -2.25592 | 33.61123 | 36020 ft | 451 kts | 255° |
| 2026-04-21 13:11 | -2.27232 | 33.55190 | 36020 ft | 448 kts | 254° |
| 2026-04-21 13:11 | -2.29165 | 33.48199 | 36020 ft | 448 kts | 254° |
| 2026-04-21 13:12 | -2.30531 | 33.43256 | 36020 ft | 449 kts | 254° |
| 2026-04-21 13:12 | -2.32458 | 33.36280 | 36020 ft | 449 kts | 254° |
| 2026-04-21 13:13 | -2.33792 | 33.31453 | 36020 ft | 449 kts | 255° |
| 2026-04-21 13:13 | -2.35693 | 33.24569 | 36020 ft | 448 kts | 255° |
| 2026-04-21 13:14 | -2.37028 | 33.19734 | 36020 ft | 449 kts | 255° |
| 2026-04-21 13:14 | -2.38681 | 33.13750 | 36020 ft | 449 kts | 255° |
| 2026-04-21 13:15 | -2.40587 | 33.06846 | 36020 ft | 449 kts | 255° |
| 2026-04-21 13:15 | -2.41958 | 33.01877 | 36020 ft | 449 kts | 255° |
| 2026-04-21 13:16 | -2.43609 | 32.95895 | 36020 ft | 449 kts | 255° |
| 2026-04-21 13:16 | -2.45170 | 32.89824 | 36020 ft | 449 kts | 258° |
| 2026-04-21 13:17 | -2.46430 | 32.83793 | 36020 ft | 449 kts | 258° |
| 2026-04-21 13:17 | -2.47988 | 32.76661 | 36020 ft | 449 kts | 257° |
| 2026-04-21 13:18 | -2.49080 | 32.71664 | 36020 ft | 449 kts | 257° |
| 2026-04-21 13:18 | -2.50187 | 32.67183 | 36020 ft | 449 kts | 255° |
| 2026-04-21 13:19 | -2.51060 | 32.63837 | 36020 ft | 449 kts | 255° |
| 2026-04-21 13:19 | -2.52041 | 32.60021 | 36020 ft | 449 kts | 256° |
| 2026-04-21 13:20 | -2.53590 | 32.53980 | 36020 ft | 449 kts | 256° |
| 2026-04-21 13:20 | -2.55133 | 32.47946 | 36020 ft | 449 kts | 256° |
| 2026-04-21 13:21 | -2.56668 | 32.41934 | 36020 ft | 449 kts | 256° |
| 2026-04-21 13:21 | -2.58201 | 32.35928 | 36020 ft | 449 kts | 256° |
| 2026-04-21 13:22 | -2.59694 | 32.30072 | 36020 ft | 449 kts | 256° |
| 2026-04-21 13:22 | -2.61208 | 32.24133 | 36020 ft | 449 kts | 256° |
| 2026-04-21 13:23 | -2.62749 | 32.18087 | 36020 ft | 449 kts | 256° |
| 2026-04-21 13:23 | -2.64283 | 32.12066 | 36020 ft | 449 kts | 256° |
| 2026-04-21 13:24 | -2.66074 | 32.05032 | 36020 ft | 449 kts | 256° |
| 2026-04-21 13:24 | -2.67363 | 31.99969 | 36020 ft | 449 kts | 256° |
| 2026-04-21 13:25 | -2.68912 | 31.93885 | 36020 ft | 449 kts | 256° |
| 2026-04-21 13:25 | -2.70712 | 31.86812 | 36020 ft | 449 kts | 256° |
| 2026-04-21 13:26 | -2.71996 | 31.81766 | 36020 ft | 449 kts | 256° |
| 2026-04-21 13:26 | -2.73549 | 31.75660 | 36020 ft | 448 kts | 256° |
| 2026-04-21 13:27 | -2.75115 | 31.69504 | 36020 ft | 448 kts | 256° |
| 2026-04-21 13:27 | -2.76672 | 31.63382 | 36020 ft | 448 kts | 256° |
| 2026-04-21 13:28 | -2.78229 | 31.57254 | 36020 ft | 448 kts | 256° |
| 2026-04-21 13:28 | -2.79789 | 31.51118 | 36020 ft | 448 kts | 256° |
| 2026-04-21 13:29 | -2.81338 | 31.45020 | 36020 ft | 448 kts | 256° |
| 2026-04-21 13:29 | -2.83156 | 31.37865 | 36032 ft | 448 kts | 256° |
| 2026-04-21 13:30 | -2.84429 | 31.32852 | 36043 ft | 448 kts | 256° |
| 2026-04-21 13:30 | -2.85952 | 31.26856 | 36056 ft | 448 kts | 256° |
| 2026-04-21 13:31 | -2.87480 | 31.20837 | 36070 ft | 448 kts | 256° |
| 2026-04-21 13:31 | -2.89289 | 31.13713 | 36074 ft | 448 kts | 256° |
| 2026-04-21 13:32 | -2.90574 | 31.08648 | 36074 ft | 448 kts | 256° |
| 2026-04-21 13:32 | -2.92128 | 31.02523 | 36074 ft | 448 kts | 256° |
| 2026-04-21 13:33 | -2.93686 | 30.96378 | 36074 ft | 448 kts | 256° |
| 2026-04-21 13:33 | -2.95234 | 30.90273 | 36074 ft | 448 kts | 256° |
| 2026-04-21 13:34 | -2.96632 | 30.84759 | 36074 ft | 448 kts | 256° |
| 2026-04-21 13:34 | -2.98193 | 30.78560 | 36074 ft | 448 kts | 257° |
| 2026-04-21 13:35 | -2.99326 | 30.72386 | 36074 ft | 448 kts | 261° |
| 2026-04-21 13:35 | -3.00589 | 30.65197 | 36074 ft | 448 kts | 259° |
| 2026-04-21 13:36 | -3.01598 | 30.59590 | 36074 ft | 448 kts | 259° |
| 2026-04-21 13:36 | -3.02678 | 30.53584 | 36074 ft | 448 kts | 259° |
| 2026-04-21 13:37 | -3.03314 | 30.50062 | 36074 ft | 448 kts | 259° |
| 2026-04-21 13:37 | -3.04278 | 30.44723 | 36074 ft | 448 kts | 259° |
| 2026-04-21 13:38 | -3.05395 | 30.38541 | 35353 ft | 448 kts | 259° |
| 2026-04-21 13:38 | -3.05952 | 30.35460 | 34596 ft | 450 kts | 259° |
| 2026-04-21 13:38 | -3.06690 | 30.31379 | 33544 ft | 454 kts | 259° |
| 2026-04-21 13:39 | -3.07068 | 30.29293 | 33019 ft | 455 kts | 259° |
| 2026-04-21 13:39 | -3.07491 | 30.26953 | 32590 ft | 452 kts | 259° |
| 2026-04-21 13:39 | -3.07880 | 30.24805 | 32174 ft | 451 kts | 259° |
| 2026-04-21 13:39 | -3.08244 | 30.22791 | 31781 ft | 449 kts | 259° |
| 2026-04-21 13:40 | -3.08647 | 30.20565 | 31345 ft | 448 kts | 259° |
| 2026-04-21 13:40 | -3.08986 | 30.18685 | 30976 ft | 447 kts | 259° |
| 2026-04-21 13:40 | -3.09662 | 30.14947 | 30238 ft | 444 kts | 259° |
| 2026-04-21 13:40 | -3.10202 | 30.11959 | 29645 ft | 442 kts | 259° |
| 2026-04-21 13:41 | -3.10573 | 30.09903 | 29237 ft | 441 kts | 259° |
| 2026-04-21 13:41 | -3.11117 | 30.06891 | 28637 ft | 439 kts | 259° |
| 2026-04-21 13:41 | -3.11843 | 30.02875 | 27836 ft | 437 kts | 259° |
| 2026-04-21 13:41 | -3.12238 | 30.00688 | 27398 ft | 435 kts | 259° |
| 2026-04-21 13:42 | -3.12596 | 29.98703 | 27000 ft | 434 kts | 259° |
| 2026-04-21 13:42 | -3.12966 | 29.96656 | 26581 ft | 429 kts | 259° |
| 2026-04-21 13:42 | -3.13281 | 29.94909 | 26235 ft | 420 kts | 259° |
| 2026-04-21 13:42 | -3.13626 | 29.92999 | 25852 ft | 410 kts | 259° |
| 2026-04-21 13:43 | -3.13923 | 29.91354 | 25521 ft | 402 kts | 259° |
| 2026-04-21 13:43 | -3.14242 | 29.89586 | 25164 ft | 393 kts | 259° |
| 2026-04-21 13:43 | -3.14642 | 29.87372 | 24717 ft | 385 kts | 259° |
| 2026-04-21 13:43 | -3.14923 | 29.85811 | 24405 ft | 389 kts | 259° |
| 2026-04-21 13:44 | -3.15283 | 29.83818 | 24002 ft | 401 kts | 259° |
| 2026-04-21 13:44 | -3.15782 | 29.81054 | 23433 ft | 401 kts | 259° |
| 2026-04-21 13:44 | -3.16230 | 29.78566 | 22929 ft | 399 kts | 259° |
| 2026-04-21 13:44 | -3.16602 | 29.76505 | 22509 ft | 399 kts | 259° |
| 2026-04-21 13:45 | -3.16799 | 29.75414 | 22287 ft | 398 kts | 259° |
| 2026-04-21 13:45 | -3.17100 | 29.73744 | 21946 ft | 397 kts | 259° |
| 2026-04-21 13:45 | -3.17381 | 29.72183 | 21627 ft | 397 kts | 259° |
| 2026-04-21 13:45 | -3.17841 | 29.69634 | 21106 ft | 395 kts | 259° |
| 2026-04-21 13:46 | -3.18452 | 29.66246 | 20410 ft | 394 kts | 259° |
| 2026-04-21 13:46 | -3.18705 | 29.64843 | 20122 ft | 393 kts | 259° |
| 2026-04-21 13:46 | -3.19081 | 29.62757 | 19691 ft | 392 kts | 259° |
| 2026-04-21 13:46 | -3.19557 | 29.60113 | 19145 ft | 391 kts | 259° |
| 2026-04-21 13:47 | -3.20056 | 29.57344 | 18732 ft | 384 kts | 259° |
| 2026-04-21 13:47 | -3.20529 | 29.54719 | 18596 ft | 371 kts | 259° |
| 2026-04-21 13:47 | -3.20991 | 29.52153 | 18239 ft | 366 kts | 259° |
| 2026-04-21 13:47 | -3.21442 | 29.49651 | 17803 ft | 360 kts | 259° |
| 2026-04-21 13:48 | -3.21770 | 29.47825 | 17160 ft | 358 kts | 259° |
| 2026-04-21 13:48 | -3.21969 | 29.46720 | 16811 ft | 356 kts | 259° |
| 2026-04-21 13:48 | -3.22341 | 29.44659 | 16130 ft | 352 kts | 259° |
| 2026-04-21 13:48 | -3.22531 | 29.43601 | 15778 ft | 351 kts | 259° |
| 2026-04-21 13:49 | -3.22826 | 29.41963 | 15216 ft | 349 kts | 259° |
| 2026-04-21 13:49 | -3.23125 | 29.40302 | 14519 ft | 350 kts | 259° |
| 2026-04-21 13:49 | -3.23437 | 29.38568 | 13869 ft | 349 kts | 259° |
| 2026-04-21 13:49 | -3.23694 | 29.37042 | 13340 ft | 346 kts | 263° |
| 2026-04-21 13:50 | -3.23721 | 29.35438 | 13078 ft | 333 kts | 275° |
| 2026-04-21 13:50 | -3.23332 | 29.33480 | 12985 ft | 302 kts | 290° |
| 2026-04-21 13:50 | -3.23000 | 29.32700 | 12925 ft | 287 kts | 298° |
| 2026-04-21 13:50 | -3.22258 | 29.31618 | 12728 ft | 274 kts | 310° |
| 2026-04-21 13:51 | -3.21079 | 29.30500 | 12183 ft | 269 kts | 323° |
| 2026-04-21 13:51 | -3.20167 | 29.29912 | 11849 ft | 264 kts | 333° |
| 2026-04-21 13:51 | -3.19077 | 29.29468 | 11413 ft | 262 kts | 344° |
| 2026-04-21 13:51 | -3.17913 | 29.29221 | 10980 ft | 256 kts | 353° |
| 2026-04-21 13:52 | -3.16397 | 29.29101 | 10663 ft | 234 kts | 356° |
| 2026-04-21 13:52 | -3.15781 | 29.29052 | 10610 ft | 225 kts | 355° |
| 2026-04-21 13:52 | -3.14762 | 29.28968 | 10502 ft | 224 kts | 356° |
| 2026-04-21 13:52 | -3.13483 | 29.28866 | 10314 ft | 205 kts | 353° |
| 2026-04-21 13:53 | -3.12432 | 29.28550 | 10203 ft | 205 kts | 328° |
| 2026-04-21 13:53 | -3.11740 | 29.27834 | 10048 ft | 208 kts | 298° |
| 2026-04-21 13:53 | -3.11321 | 29.26853 | 9894 ft | 210 kts | 295° |
| 2026-04-21 13:53 | -3.10518 | 29.25663 | 9636 ft | 205 kts | 314° |
| 2026-04-21 13:54 | -3.09535 | 29.24589 | 9289 ft | 207 kts | 312° |
| 2026-04-21 13:54 | -3.08524 | 29.23588 | 9018 ft | 200 kts | 331° |
| 2026-04-21 13:54 | -3.07191 | 29.23356 | 8830 ft | 199 kts | 16° |
| 2026-04-21 13:54 | -3.06206 | 29.23863 | 8668 ft | 199 kts | 40° |
| 2026-04-21 13:55 | -3.05480 | 29.24515 | 8494 ft | 198 kts | 47° |
| 2026-04-21 13:55 | -3.04899 | 29.25623 | 8289 ft | 194 kts | 81° |
| 2026-04-21 13:55 | -3.04890 | 29.26521 | 8149 ft | 195 kts | 98° |
| 2026-04-21 13:55 | -3.05429 | 29.27780 | 7913 ft | 196 kts | 129° |
| 2026-04-21 13:56 | -3.06536 | 29.28563 | 7694 ft | 198 kts | 159° |
| 2026-04-21 13:56 | -3.07412 | 29.28718 | 7540 ft | 200 kts | 182° |
| 2026-04-21 13:56 | -3.08334 | 29.28591 | 7401 ft | 200 kts | 185° |
| 2026-04-21 13:56 | -3.09705 | 29.28581 | 7169 ft | 197 kts | 172° |
| 2026-04-21 13:57 | -3.10654 | 29.28663 | 7012 ft | 196 kts | 173° |
| 2026-04-21 13:57 | -3.11620 | 29.28731 | 6854 ft | 195 kts | 173° |
| 2026-04-21 13:57 | -3.12503 | 29.28794 | 6709 ft | 194 kts | 173° |
| 2026-04-21 13:57 | -3.13395 | 29.28956 | 6542 ft | 191 kts | 155° |
| 2026-04-21 13:58 | -3.17822 | 29.29665 | 5545 ft | 177 kts | 174° |
| 2026-04-21 13:59 | -3.18639 | 29.29722 | 5364 ft | 174 kts | 172° |
| 2026-04-21 13:59 | -3.19405 | 29.29798 | 5192 ft | 174 kts | 171° |
| 2026-04-21 13:59 | -3.20157 | 29.29887 | 5032 ft | 171 kts | 171° |
| 2026-04-21 13:59 | -3.20883 | 29.29984 | 4841 ft | 159 kts | 170° |
| 2026-04-21 14:00 | -3.21746 | 29.30109 | 4694 ft | 158 kts | 169° |
| 2026-04-21 14:00 | -3.22840 | 29.30276 | 4413 ft | 158 kts | 169° |
| 2026-04-21 14:00 | -3.23898 | 29.30446 | 4174 ft | 157 kts | 169° |
| 2026-04-21 14:00 | -3.24671 | 29.30572 | 3999 ft | 157 kts | 169° |
| 2026-04-21 14:01 | -3.25412 | 29.30695 | 3831 ft | 156 kts | 169° |
| 2026-04-21 14:01 | -3.26187 | 29.30824 | 3655 ft | 155 kts | 169° |
| 2026-04-21 14:01 | -3.26960 | 29.30953 | 3480 ft | 154 kts | 170° |
| 2026-04-21 14:01 | -3.27997 | 29.31129 | 3251 ft | 152 kts | 170° |
| 2026-04-21 14:02 | -3.28666 | 29.31241 | 3093 ft | 153 kts | 170° |
| 2026-04-21 14:02 | -3.30040 | 29.31476 | 2779 ft | 151 kts | 170° |
| 2026-04-21 14:02 | -3.31093 | 29.31657 | 2578 ft | 148 kts | 172° |
| 2026-04-21 14:03 | -3.32358 | 29.31854 | 2568 ft | 56 kts | 174° |
| 2026-04-21 14:03 | -3.32706 | 29.31906 | 2567 ft | 45 kts | 169° |
| 2026-04-21 14:03 | -3.32874 | 29.31957 | 2567 ft | 12 kts | 152° |
| 2026-04-21 14:03 | -3.32893 | 29.31922 | 2566 ft | 10 kts | 347° |
| 2026-04-21 14:04 | -3.32819 | 29.31917 | 2566 ft | 14 kts | 351° |
| 2026-04-21 14:04 | -3.32691 | 29.31901 | 2567 ft | 22 kts | 353° |
| 2026-04-21 14:04 | -3.32537 | 29.31880 | 2568 ft | 20 kts | 352° |
| 2026-04-21 14:04 | -3.32401 | 29.31861 | 2568 ft | 19 kts | 352° |
| 2026-04-21 14:05 | -3.32311 | 29.31848 | 2569 ft | 19 kts | 351° |
| 2026-04-21 14:05 | -3.32253 | 29.31839 | 2568 ft | 20 kts | 351° |
| 2026-04-21 14:05 | -3.32213 | 29.31874 | 2569 ft | 11 kts | 77° |
| 2026-04-21 14:05 | -3.32202 | 29.31937 | 2570 ft | 13 kts | 83° |
| 2026-04-21 14:06 | -3.32148 | 29.31991 | 2571 ft | 9 kts | 17° |
| 2026-04-21 14:06 | -3.32108 | 29.32023 | 2571 ft | 5 kts | 34° |
| 2026-04-21 14:06 | -3.32098 | 29.32030 | 2571 ft | 0 kts | 39° |